Time;durP1;ratioP1;P1;durP2;ratioP2;P2;SDS_P1;SDS_P2;PMS_P1;PMS_P2;Temp;Humidity;BMP_temperature;BMP_pressure;BME280_temperature;BME280_humidity;BME280_pressure;Samples;Min_cycle;Max_cycle;Signal;HPM_P1;HPM_P2
2022/05/09 00:01:02;;;;;;;14.93;12.40;;;;;;;;;;5054597;28;20427;-77
2022/05/09 00:03:29;;;;;;;17.10;11.52;;;;;;;;;;5054205;28;20052;-77
2022/05/09 00:05:55;;;;;;;16.13;12.25;;;;;;;;;;5054286;28;20072;-76
2022/05/09 00:08:24;;;;;;;15.82;12.75;;;;;;;;;;5054553;28;20045;-77
2022/05/09 00:10:51;;;;;;;16.90;12.68;;;;;;;;;;5054412;28;20045;-77
2022/05/09 00:13:18;;;;;;;14.73;11.98;;;;;;;;;;5053988;28;20049;-77
2022/05/09 00:15:44;;;;;;;15.80;12.02;;;;;;;;;;5054117;28;20049;-76
2022/05/09 00:18:11;;;;;;;15.23;11.40;;;;;;;;;;5053860;28;20494;-76
2022/05/09 00:20:38;;;;;;;14.05;11.93;;;;;;;;;;5054347;28;20049;-77
2022/05/09 00:23:05;;;;;;;12.55;10.98;;;;;;;;;;5053773;28;20053;-77
2022/05/09 00:25:33;;;;;;;15.80;11.43;;;;;;;;;;5053751;28;20079;-77
2022/05/09 00:28:00;;;;;;;15.02;11.35;;;;;;;;;;5053999;28;20076;-76
2022/05/09 00:30:27;;;;;;;16.48;11.85;;;;;;;;;;5054018;28;20048;-77
2022/05/09 00:32:53;;;;;;;13.85;11.57;;;;;;;;;;5053439;28;20052;-76
2022/05/09 00:35:20;;;;;;;14.98;11.50;;;;;;;;;;5053839;28;20420;-76
2022/05/09 00:37:47;;;;;;;16.30;12.40;;;;;;;;;;5053965;28;20049;-76
2022/05/09 00:40:16;;;;;;;14.65;12.02;;;;;;;;;;5053868;28;20045;-77
2022/05/09 00:42:49;;;;;;;16.50;12.43;;;;;;;;;;5053458;28;20049;-77
2022/05/09 00:45:18;;;;;;;18.20;11.95;;;;;;;;;;5053250;28;20075;-77
2022/05/09 00:47:45;;;;;;;14.02;11.15;;;;;;;;;;5072363;28;20041;-76
2022/05/09 00:50:16;;;;;;;16.30;12.15;;;;;;;;;;5073730;28;20052;-77
2022/05/09 00:52:45;;;;;;;;;;;;;;;;;;5074038;28;20045;-76
2022/05/09 00:55:16;;;;;;;15.13;11.20;;;;;;;;;;5073168;28;20444;-77
2022/05/09 00:57:48;;;;;;;15.57;12.55;;;;;;;;;;5073166;28;20052;-77
2022/05/09 01:00:19;;;;;;;15.75;11.88;;;;;;;;;;5073427;28;20044;-77
2022/05/09 01:02:50;;;;;;;15.52;12.13;;;;;;;;;;5073388;28;20127;-77
2022/05/09 01:05:17;;;;;;;16.15;12.30;;;;;;;;;;5073590;28;20044;-76
2022/05/09 01:07:45;;;;;;;15.57;12.30;;;;;;;;;;5073202;28;20342;-77
2022/05/09 01:10:12;;;;;;;14.77;11.68;;;;;;;;;;5072987;28;20060;-76
2022/05/09 01:12:42;;;;;;;14.90;11.85;;;;;;;;;;5072964;28;20388;-77
2022/05/09 01:15:12;;;;;;;16.02;12.07;;;;;;;;;;5073145;28;20051;-77
2022/05/09 01:17:40;;;;;;;13.90;11.68;;;;;;;;;;5072886;28;20087;-76
2022/05/09 01:20:09;;;;;;;16.05;11.27;;;;;;;;;;5072534;28;20438;-76
2022/05/09 01:22:39;;;;;;;14.57;12.05;;;;;;;;;;5073041;28;20048;-77
2022/05/09 01:25:09;;;;;;;14.13;12.23;;;;;;;;;;5072561;28;20048;-77
2022/05/09 01:27:38;;;;;;;14.65;12.02;;;;;;;;;;5072825;28;20040;-77
2022/05/09 01:30:10;;;;;;;15.70;11.80;;;;;;;;;;5072738;28;20093;-76
2022/05/09 01:32:43;;;;;;;14.60;11.88;;;;;;;;;;5072590;28;20524;-77
2022/05/09 01:35:18;;;;;;;14.30;11.88;;;;;;;;;;5072001;28;20495;-77
2022/05/09 01:37:51;;;;;;;17.02;12.88;;;;;;;;;;5072711;28;20048;-76
2022/05/09 01:40:18;;;;;;;14.63;11.50;;;;;;;;;;5072562;28;20040;-77
2022/05/09 01:42:45;;;;;;;15.23;12.20;;;;;;;;;;5072590;28;20052;-76
2022/05/09 01:45:14;;;;;;;16.00;12.13;;;;;;;;;;5071279;28;20040;-77
2022/05/09 01:50:25;;;;;;;15.32;11.85;;;;;;;;;;5052296;28;20466;-76
2022/05/09 01:52:54;;;;;;;17.15;13.13;;;;;;;;;;5052236;28;20044;-77
2022/05/09 01:55:21;;;;;;;15.27;12.73;;;;;;;;;;5052017;28;20434;-77
2022/05/09 01:57:49;;;;;;;15.77;12.93;;;;;;;;;;5052210;28;20052;-77
2022/05/09 02:00:17;;;;;;;17.08;13.27;;;;;;;;;;5051825;28;20131;-77
2022/05/09 02:02:44;;;;;;;15.98;12.25;;;;;;;;;;5051973;28;20052;-77
2022/05/09 02:05:11;;;;;;;16.35;12.57;;;;;;;;;;5052353;28;20048;-77
2022/05/09 02:07:38;;;;;;;16.00;12.40;;;;;;;;;;5052158;28;20055;-77
2022/05/09 02:10:07;;;;;;;17.02;12.98;;;;;;;;;;5051973;28;20041;-77
2022/05/09 02:12:34;;;;;;;16.35;12.25;;;;;;;;;;5052013;28;20099;-77
2022/05/09 02:15:01;;;;;;;16.42;12.50;;;;;;;;;;5051537;28;20484;-77
2022/05/09 02:17:29;;;;;;;16.23;12.45;;;;;;;;;;5052351;28;20051;-76
2022/05/09 02:19:56;;;;;;;17.88;12.23;;;;;;;;;;5051866;28;20041;-77
2022/05/09 02:22:22;;;;;;;15.65;12.48;;;;;;;;;;5051840;28;20128;-77
2022/05/09 02:24:49;;;;;;;14.68;12.18;;;;;;;;;;5051510;28;20457;-77
2022/05/09 02:27:17;;;;;;;15.55;13.02;;;;;;;;;;5051764;28;20056;-77
2022/05/09 02:29:44;;;;;;;16.75;13.02;;;;;;;;;;5051945;28;20525;-77
2022/05/09 02:32:13;;;;;;;17.17;12.85;;;;;;;;;;5052161;28;20053;-77
2022/05/09 02:34:40;;;;;;;15.35;12.88;;;;;;;;;;5051949;28;20044;-76
2022/05/09 02:37:06;;;;;;;16.52;13.05;;;;;;;;;;5052846;28;20052;-77
2022/05/09 02:39:33;;;;;;;20.88;14.07;;;;;;;;;;5052241;28;20064;-77
2022/05/09 02:42:00;;;;;;;16.42;12.50;;;;;;;;;;5055334;28;20049;-76
2022/05/09 02:44:29;;;;;;;17.27;13.65;;;;;;;;;;5055748;28;20056;-77
2022/05/09 02:46:55;;;;;;;20.02;13.55;;;;;;;;;;5067687;28;20060;-76
2022/05/09 02:49:22;;;;;;;17.27;13.15;;;;;;;;;;5075262;28;20071;-76
2022/05/09 02:51:51;;;;;;;19.40;12.95;;;;;;;;;;5075915;28;20076;-77
2022/05/09 02:54:18;;;;;;;16.42;12.85;;;;;;;;;;5084185;28;20410;-76
2022/05/09 02:56:45;;;;;;;20.00;13.57;;;;;;;;;;5083399;28;20048;-76
2022/05/09 02:59:12;;;;;;;18.67;13.02;;;;;;;;;;5080124;28;20503;-77
2022/05/09 03:01:40;;;;;;;17.70;13.25;;;;;;;;;;5080103;28;20060;-77
2022/05/09 03:06:51;;;;;;;18.17;13.35;;;;;;;;;;5078135;28;20534;-77
2022/05/09 03:09:18;;;;;;;18.40;13.38;;;;;;;;;;5077433;28;20143;-77
2022/05/09 03:11:45;;;;;;;21.27;13.65;;;;;;;;;;5076953;28;20052;-76
2022/05/09 03:14:12;;;;;;;17.08;13.73;;;;;;;;;;5075418;28;20135;-76
2022/05/09 03:16:40;;;;;;;20.17;14.68;;;;;;;;;;5075427;28;20051;-75
2022/05/09 03:19:07;;;;;;;19.98;15.30;;;;;;;;;;5075453;28;20056;-76
2022/05/09 03:21:34;;;;;;;26.80;15.23;;;;;;;;;;5074749;28;20413;-76
2022/05/09 03:24:01;;;;;;;22.33;15.70;;;;;;;;;;5075754;28;20048;-76
2022/05/09 03:26:28;;;;;;;17.55;14.35;;;;;;;;;;5075460;28;20052;-75
2022/05/09 03:28:54;;;;;;;19.73;15.05;;;;;;;;;;5076292;28;20045;-76
2022/05/09 03:31:21;;;;;;;19.50;15.68;;;;;;;;;;5076309;28;20045;-76
2022/05/09 03:33:50;;;;;;;19.75;14.80;;;;;;;;;;5075188;28;20106;-75
2022/05/09 03:36:17;;;;;;;19.65;14.48;;;;;;;;;;5074843;28;20099;-76
2022/05/09 03:38:43;;;;;;;20.00;14.73;;;;;;;;;;5075289;28;20053;-76
2022/05/09 03:41:10;;;;;;;29.05;15.63;;;;;;;;;;5074770;28;20041;-76
2022/05/09 03:43:37;;;;;;;21.33;14.70;;;;;;;;;;5074737;28;20418;-75
2022/05/09 03:46:04;;;;;;;19.00;14.90;;;;;;;;;;5069172;28;20048;-75
2022/05/09 03:48:31;;;;;;;20.50;15.40;;;;;;;;;;5054619;28;20052;-76
2022/05/09 03:51:01;;;;;;;19.48;15.02;;;;;;;;;;5054367;28;20045;-76
2022/05/09 03:53:28;;;;;;;18.85;14.93;;;;;;;;;;5054930;28;20041;-76
2022/05/09 03:55:56;;;;;;;21.48;15.68;;;;;;;;;;5054425;28;20049;-76
2022/05/09 03:58:23;;;;;;;20.25;15.23;;;;;;;;;;5054482;28;20048;-76
2022/05/09 04:00:50;;;;;;;23.02;15.88;;;;;;;;;;5054472;28;20435;-77
2022/05/09 04:03:16;;;;;;;20.92;14.85;;;;;;;;;;5054436;28;20056;-77
2022/05/09 04:05:43;;;;;;;19.27;15.70;;;;;;;;;;5054457;28;20045;-75
2022/05/09 04:08:16;;;;;;;20.95;15.82;;;;;;;;;;5053507;28;20049;-75
2022/05/09 04:10:44;;;;;;;21.30;15.57;;;;;;;;;;5054486;28;20086;-76
2022/05/09 04:13:11;;;;;;;21.20;16.67;;;;;;;;;;5054543;28;20049;-76
2022/05/09 04:18:26;;;;;;;22.20;16.42;;;;;;;;;;5054800;28;20051;-76
2022/05/09 04:20:53;;;;;;;23.83;17.23;;;;;;;;;;5054892;28;20475;-77
2022/05/09 04:23:22;;;;;;;20.83;16.13;;;;;;;;;;5054738;28;20091;-76
2022/05/09 04:25:50;;;;;;;19.00;15.32;;;;;;;;;;5054468;28;20048;-76
2022/05/09 04:28:18;;;;;;;21.27;16.10;;;;;;;;;;5055691;28;20048;-77
2022/05/09 04:30:45;;;;;;;21.05;15.15;;;;;;;;;;5053778;28;20504;-76
2022/05/09 04:33:13;;;;;;;21.25;17.13;;;;;;;;;;5053685;28;20520;-77
2022/05/09 04:35:42;;;;;;;23.02;16.65;;;;;;;;;;5053669;28;20049;-76
2022/05/09 04:38:14;;;;;;;20.52;15.65;;;;;;;;;;5053833;28;20053;-77
2022/05/09 04:40:42;;;;;;;22.38;15.45;;;;;;;;;;5053725;28;20041;-76
2022/05/09 04:43:09;;;;;;;21.80;15.90;;;;;;;;;;5054166;28;20412;-76
2022/05/09 04:45:36;;;;;;;21.33;16.05;;;;;;;;;;5054593;28;20484;-77
2022/05/09 04:48:04;;;;;;;21.30;16.73;;;;;;;;;;5073847;28;20056;-76
2022/05/09 04:50:34;;;;;;;22.70;17.55;;;;;;;;;;5073670;28;20537;-76
2022/05/09 04:53:01;;;;;;;20.52;16.67;;;;;;;;;;5073520;28;20045;-76
2022/05/09 04:55:28;;;;;;;22.00;16.83;;;;;;;;;;5073421;28;20079;-77
2022/05/09 04:57:57;;;;;;;21.30;16.13;;;;;;;;;;5073899;28;20046;-77
2022/05/09 05:00:26;;;;;;;22.33;16.85;;;;;;;;;;5073679;28;20140;-77
2022/05/09 05:02:53;;;;;;;22.55;17.40;;;;;;;;;;5073739;28;20044;-77
2022/05/09 05:05:20;;;;;;;24.05;16.33;;;;;;;;;;5072952;28;20532;-76
2022/05/09 05:07:48;;;;;;;24.98;16.63;;;;;;;;;;5073508;28;20101;-77
2022/05/09 05:10:15;;;;;;;24.70;16.98;;;;;;;;;;5073845;28;20080;-76
2022/05/09 05:12:42;;;;;;;22.48;17.08;;;;;;;;;;5073888;28;20059;-76
2022/05/09 05:15:12;;;;;;;21.98;16.58;;;;;;;;;;5073325;28;20048;-76
2022/05/09 05:17:39;;;;;;;25.00;17.45;;;;;;;;;;5073346;28;20052;-77
2022/05/09 05:20:09;;;;;;;21.33;16.90;;;;;;;;;;5072716;28;20047;-76
2022/05/09 05:22:37;;;;;;;22.73;17.45;;;;;;;;;;5073101;28;20090;-77
2022/05/09 05:25:05;;;;;;;23.90;17.98;;;;;;;;;;5073664;28;20048;-77
2022/05/09 05:27:32;;;;;;;22.27;17.75;;;;;;;;;;5073254;28;20056;-77
2022/05/09 05:29:59;;;;;;;22.70;17.73;;;;;;;;;;5073406;28;20045;-77
2022/05/09 05:32:31;;;;;;;24.00;17.88;;;;;;;;;;5073465;28;20048;-77
2022/05/09 05:34:58;;;;;;;22.90;17.95;;;;;;;;;;5073558;28;20045;-77
2022/05/09 05:37:25;;;;;;;25.08;18.63;;;;;;;;;;5073690;28;20358;-77
2022/05/09 05:39:52;;;;;;;23.92;18.42;;;;;;;;;;5073455;28;20087;-76
2022/05/09 05:42:22;;;;;;;23.17;18.10;;;;;;;;;;5074113;28;20366;-77
2022/05/09 05:44:49;;;;;;;22.80;17.75;;;;;;;;;;5073197;28;20088;-77
2022/05/09 05:47:19;;;;;;;25.02;18.20;;;;;;;;;;5058682;28;20051;-77
2022/05/09 05:49:47;;;;;;;24.60;17.77;;;;;;;;;;5053045;28;20428;-77
2022/05/09 05:52:15;;;;;;;23.92;17.90;;;;;;;;;;5053854;28;20051;-77
2022/05/09 05:54:43;;;;;;;23.73;17.48;;;;;;;;;;5053655;28;20056;-77
2022/05/09 05:57:18;;;;;;;25.30;18.15;;;;;;;;;;5053968;28;20144;-77
2022/05/09 05:59:49;;;;;;;26.35;17.45;;;;;;;;;;5053392;28;20140;-77
2022/05/09 06:02:16;;;;;;;21.67;17.08;;;;;;;;;;5053662;28;20060;-77
2022/05/09 06:04:43;;;;;;;22.33;17.17;;;;;;;;;;5053719;28;20132;-77
2022/05/09 06:07:12;;;;;;;24.90;18.20;;;;;;;;;;5054113;28;20049;-77
2022/05/09 06:09:40;;;;;;;24.92;17.85;;;;;;;;;;5056221;28;20099;-77
2022/05/09 06:12:07;;;;;;;24.52;18.40;;;;;;;;;;5057501;28;20053;-77
2022/05/09 06:14:34;;;;;;;25.23;18.52;;;;;;;;;;5057334;28;20052;-77
2022/05/09 06:17:02;;;;;;;25.85;18.88;;;;;;;;;;5054813;28;20049;-77
2022/05/09 06:19:30;;;;;;;27.05;18.63;;;;;;;;;;5054092;28;20048;-77
2022/05/09 06:21:58;;;;;;;26.73;19.25;;;;;;;;;;5054366;28;20136;-77
2022/05/09 06:24:26;;;;;;;25.63;18.77;;;;;;;;;;5054666;28;20081;-77
2022/05/09 06:26:53;;;;;;;24.80;18.65;;;;;;;;;;5055008;28;20415;-77
2022/05/09 06:29:20;;;;;;;25.73;18.45;;;;;;;;;;5054698;28;20166;-77
2022/05/09 06:31:47;;;;;;;25.58;19.20;;;;;;;;;;5054186;28;20658;-77
2022/05/09 06:34:14;;;;;;;23.35;18.00;;;;;;;;;;5063004;28;20044;-77
2022/05/09 06:36:43;;;;;;;30.13;21.73;;;;;;;;;;5070091;28;20057;-77
2022/05/09 06:39:11;;;;;;;24.70;18.15;;;;;;;;;;5068024;28;20516;-77
2022/05/09 06:41:39;;;;;;;25.20;18.80;;;;;;;;;;5056750;28;20103;-77
2022/05/09 06:44:06;;;;;;;25.85;19.42;;;;;;;;;;5053585;28;20423;-77
2022/05/09 06:46:33;;;;;;;27.05;19.92;;;;;;;;;;5061588;28;20052;-77
2022/05/09 06:49:01;;;;;;;26.23;19.25;;;;;;;;;;5072864;28;20048;-77
2022/05/09 06:51:28;;;;;;;24.00;18.35;;;;;;;;;;5075196;28;20049;-77
2022/05/09 06:53:55;;;;;;;26.65;18.90;;;;;;;;;;5075244;28;20051;-77
2022/05/09 06:56:22;;;;;;;24.63;17.67;;;;;;;;;;5072692;28;20372;-77
2022/05/09 06:58:50;;;;;;;23.73;17.20;;;;;;;;;;5072841;28;20049;-77
2022/05/09 07:01:19;;;;;;;24.75;18.35;;;;;;;;;;5071688;28;20048;-77
2022/05/09 07:03:47;;;;;;;26.83;18.45;;;;;;;;;;5071385;28;20048;-77
2022/05/09 07:06:16;;;;;;;25.13;18.15;;;;;;;;;;5071123;28;20136;-77
2022/05/09 07:08:43;;;;;;;26.27;20.08;;;;;;;;;;5071642;28;20048;-77
2022/05/09 07:11:11;;;;;;;25.02;18.35;;;;;;;;;;5073498;28;20052;-77
2022/05/09 07:13:37;;;;;;;26.67;18.73;;;;;;;;;;5073182;28;20102;-77
2022/05/09 07:16:08;;;;;;;28.63;20.35;;;;;;;;;;5074257;28;20499;-76
2022/05/09 07:18:36;;;;;;;25.90;19.55;;;;;;;;;;5074716;28;20049;-77
2022/05/09 07:21:03;;;;;;;24.65;18.85;;;;;;;;;;5072837;28;20080;-77
2022/05/09 07:23:29;;;;;;;27.40;18.58;;;;;;;;;;5073218;28;20049;-77
2022/05/09 07:25:56;;;;;;;23.35;18.00;;;;;;;;;;5072857;28;20052;-77
2022/05/09 07:28:24;;;;;;;26.33;18.45;;;;;;;;;;5072655;28;20075;-77
2022/05/09 07:30:51;;;;;;;26.98;20.27;;;;;;;;;;5072826;28;20051;-79
2022/05/09 07:33:20;;;;;;;31.33;20.95;;;;;;;;;;5072359;28;20135;-77
2022/05/09 07:35:48;;;;;;;30.13;22.08;;;;;;;;;;5072745;28;20049;-77
2022/05/09 07:38:15;;;;;;;25.17;17.48;;;;;;;;;;5072505;28;20055;-77
2022/05/09 07:40:46;;;;;;;22.98;17.15;;;;;;;;;;5071231;28;20067;-77
2022/05/09 07:43:15;;;;;;;26.27;18.85;;;;;;;;;;5072941;28;20045;-77
2022/05/09 07:45:43;;;;;;;26.85;20.70;;;;;;;;;;5072535;28;20050;-77
2022/05/09 07:48:10;;;;;;;23.13;18.38;;;;;;;;;;5054308;28;20057;-77
2022/05/09 07:50:39;;;;;;;23.63;18.52;;;;;;;;;;5055067;28;20103;-77
2022/05/09 07:53:08;;;;;;;23.63;17.73;;;;;;;;;;5055054;28;20111;-77
2022/05/09 07:55:35;;;;;;;24.50;17.83;;;;;;;;;;5056349;28;20049;-77
2022/05/09 07:58:02;;;;;;;23.20;17.45;;;;;;;;;;5060145;28;20049;-76
2022/05/09 08:00:29;;;;;;;24.17;18.05;;;;;;;;;;5060050;28;20450;-76
2022/05/09 08:02:56;;;;;;;23.77;18.55;;;;;;;;;;5059557;28;20068;-77
2022/05/09 08:05:23;;;;;;;25.58;17.73;;;;;;;;;;5059328;28;20060;-77
2022/05/09 08:07:51;;;;;;;24.17;18.15;;;;;;;;;;5059402;28;20053;-77
2022/05/09 08:10:18;;;;;;;24.80;18.95;;;;;;;;;;5059614;28;20053;-77
2022/05/09 08:12:46;;;;;;;23.27;18.45;;;;;;;;;;5059129;28;20051;-76
2022/05/09 08:15:15;;;;;;;24.85;18.77;;;;;;;;;;5057411;28;20045;-77
2022/05/09 08:17:44;;;;;;;24.77;18.80;;;;;;;;;;5058539;28;20050;-77
2022/05/09 08:20:12;;;;;;;24.98;18.55;;;;;;;;;;5071735;28;20057;-76
2022/05/09 08:22:40;;;;;;;26.38;18.15;;;;;;;;;;5072332;28;20496;-77
2022/05/09 08:25:11;;;;;;;22.02;17.58;;;;;;;;;;5071372;28;20059;-77
2022/05/09 08:27:37;;;;;;;23.30;16.67;;;;;;;;;;5069177;28;20112;-77
2022/05/09 08:30:05;;;;;;;21.42;15.63;;;;;;;;;;5069653;28;20472;-77
2022/05/09 08:32:34;;;;;;;24.63;16.60;;;;;;;;;;5068616;28;20045;-77
2022/05/09 08:35:01;;;;;;;22.08;16.70;;;;;;;;;;5067938;28;20048;-77
2022/05/09 08:37:28;;;;;;;29.17;18.45;;;;;;;;;;5056460;28;20049;-77
2022/05/09 08:39:54;;;;;;;23.25;16.58;;;;;;;;;;5055240;28;20041;-78
2022/05/09 08:42:26;;;;;;;27.90;17.58;;;;;;;;;;5055244;28;20108;-78
2022/05/09 08:45:12;;;;;;;31.75;20.08;;;;;;;;;;5055216;28;20045;-77
2022/05/09 08:47:50;;;;;;;36.75;19.95;;;;;;;;;;5073590;28;20049;-78
2022/05/09 08:50:25;;;;;;;26.55;20.00;;;;;;;;;;5075183;28;20055;-78
2022/05/09 08:52:58;;;;;;;22.35;18.98;;;;;;;;;;5074038;28;20115;-78
2022/05/09 08:55:27;;;;;;;23.27;19.10;;;;;;;;;;5074746;28;20048;-78
2022/05/09 08:58:02;;;;;;;25.38;21.15;;;;;;;;;;5074645;28;20082;-78
2022/05/09 09:00:30;;;;;;;26.70;20.35;;;;;;;;;;5074582;28;20060;-78
2022/05/09 09:03:02;;;;;;;25.83;21.60;;;;;;;;;;5075204;28;20053;-78
2022/05/09 09:05:34;;;;;;;24.50;19.58;;;;;;;;;;5075197;28;20185;-77
2022/05/09 09:08:17;;;;;;;22.85;18.38;;;;;;;;;;5075809;28;20053;-77
2022/05/09 09:10:57;;;;;;;25.05;19.90;;;;;;;;;;5075411;28;20503;-78
2022/05/09 09:13:42;;;;;;;24.42;19.42;;;;;;;;;;5075055;28;20054;-78
2022/05/09 09:16:23;;;;;;;25.83;18.48;;;;;;;;;;5075366;28;20052;-78
2022/05/09 09:19:07;;;;;;;27.90;21.45;;;;;;;;;;5075638;28;20048;-78
2022/05/09 09:21:44;;;;;;;29.65;20.45;;;;;;;;;;5086717;28;20048;-77
2022/05/09 09:24:25;;;;;;;26.45;20.02;;;;;;;;;;5087187;28;20066;-78
2022/05/09 09:27:03;;;;;;;22.95;18.60;;;;;;;;;;5083906;28;20068;-78
2022/05/09 09:29:34;;;;;;;28.75;22.25;;;;;;;;;;5079234;28;20052;-78
2022/05/09 09:32:05;;;;;;;20.92;17.13;;;;;;;;;;5074761;28;20049;-78
2022/05/09 09:34:38;;;;;;;20.00;17.08;;;;;;;;;;5074474;28;20056;-78
2022/05/09 09:37:18;;;;;;;25.60;18.77;;;;;;;;;;5075042;28;20048;-78
2022/05/09 09:39:44;;;;;;;23.90;18.58;;;;;;;;;;5074994;28;20135;-78
2022/05/09 09:42:12;;;;;;;29.15;22.60;;;;;;;;;;5074268;28;20113;-78
2022/05/09 09:44:45;;;;;;;23.80;17.88;;;;;;;;;;5072834;28;20056;-77
2022/05/09 09:47:22;;;;;;;21.73;16.85;;;;;;;;;;5059145;28;20432;-78
2022/05/09 09:50:10;;;;;;;22.33;15.55;;;;;;;;;;5054632;28;20102;-77
2022/05/09 09:52:43;;;;;;;17.92;16.00;;;;;;;;;;5054556;28;20495;-77
2022/05/09 09:55:21;;;;;;;17.67;15.40;;;;;;;;;;5053865;28;20412;-78
2022/05/09 09:57:48;;;;;;;16.83;14.77;;;;;;;;;;5054639;28;20056;-78
2022/05/09 10:00:19;;;;;;;16.67;14.10;;;;;;;;;;5054315;28;20080;-78
2022/05/09 10:02:47;;;;;;;16.65;14.32;;;;;;;;;;5054983;28;20052;-77
2022/05/09 10:05:15;;;;;;;18.65;14.45;;;;;;;;;;5053843;28;20061;-77
2022/05/09 10:07:44;;;;;;;17.10;13.88;;;;;;;;;;5055155;28;20111;-77
2022/05/09 10:10:14;;;;;;;20.30;14.43;;;;;;;;;;5056046;28;20052;-77
2022/05/09 10:12:44;;;;;;;17.55;14.15;;;;;;;;;;5057616;28;20049;-77
2022/05/09 10:15:29;;;;;;;18.25;15.15;;;;;;;;;;5054581;28;20511;-76
2022/05/09 10:17:56;;;;;;;19.73;15.85;;;;;;;;;;5050262;28;20137;-76
2022/05/09 10:20:33;;;;;;;15.52;13.88;;;;;;;;;;5051731;28;20049;-77
2022/05/09 10:26:00;;;;;;;20.92;14.38;;;;;;;;;;5051499;28;20389;-76
2022/05/09 10:28:30;;;;;;;15.50;13.80;;;;;;;;;;5051864;28;20500;-76
2022/05/09 10:31:06;;;;;;;14.40;12.18;;;;;;;;;;5052011;28;20052;-77
2022/05/09 10:33:39;;;;;;;16.48;11.82;;;;;;;;;;5051951;28;20107;-76
2022/05/09 10:36:09;;;;;;;13.98;12.48;;;;;;;;;;5051952;28;20504;-77
2022/05/09 10:38:41;;;;;;;14.27;12.45;;;;;;;;;;5052570;28;20041;-76
2022/05/09 10:41:20;;;;;;;13.00;11.15;;;;;;;;;;5051862;28;20415;-76
2022/05/09 10:43:53;;;;;;;13.15;11.68;;;;;;;;;;5052299;28;20102;-76
2022/05/09 10:46:26;;;;;;;13.38;11.57;;;;;;;;;;5059118;28;20049;-76
2022/05/09 10:49:01;;;;;;;13.25;11.57;;;;;;;;;;5071985;28;20109;-77
2022/05/09 10:51:34;;;;;;;13.73;12.07;;;;;;;;;;5071706;28;20053;-75
2022/05/09 10:54:07;;;;;;;14.10;11.50;;;;;;;;;;5072197;28;20495;-75
2022/05/09 10:56:49;;;;;;;13.95;11.50;;;;;;;;;;5071833;28;20056;-76
2022/05/09 10:59:21;;;;;;;15.05;13.15;;;;;;;;;;5071977;28;20048;-76
2022/05/09 11:01:56;;;;;;;12.75;11.45;;;;;;;;;;5072078;28;20054;-76
2022/05/09 11:04:24;;;;;;;15.57;11.77;;;;;;;;;;5072090;28;20419;-77
2022/05/09 11:06:58;;;;;;;14.15;11.75;;;;;;;;;;5072185;28;20417;-77
2022/05/09 11:09:37;;;;;;;16.00;12.90;;;;;;;;;;5071841;28;20407;-77
2022/05/09 11:12:14;;;;;;;15.90;13.27;;;;;;;;;;5072317;28;20414;-76
2022/05/09 11:14:55;;;;;;;15.30;13.27;;;;;;;;;;5071458;28;20052;-77
2022/05/09 11:17:36;;;;;;;14.80;13.18;;;;;;;;;;5074002;28;20398;-76
2022/05/09 11:20:16;;;;;;;15.43;13.00;;;;;;;;;;5075595;28;20052;-77
2022/05/09 11:22:54;;;;;;;16.52;13.98;;;;;;;;;;5075403;28;20129;-77
2022/05/09 11:25:42;;;;;;;15.32;13.07;;;;;;;;;;5075451;28;20044;-76
2022/05/09 11:28:20;;;;;;;14.98;12.88;;;;;;;;;;5075266;28;20056;-77
2022/05/09 11:30:51;;;;;;;15.10;12.32;;;;;;;;;;5075633;28;20048;-77
2022/05/09 11:33:43;;;;;;;14.13;12.55;;;;;;;;;;5075177;28;20106;-76
2022/05/09 11:36:25;;;;;;;13.15;11.68;;;;;;;;;;5072388;28;20063;-76
2022/05/09 11:39:01;;;;;;;14.15;12.43;;;;;;;;;;5076966;28;20109;-77
2022/05/09 11:41:36;;;;;;;13.25;11.70;;;;;;;;;;5075276;28;20102;-77
2022/05/09 11:44:17;;;;;;;14.07;11.98;;;;;;;;;;5076094;28;20117;-77
2022/05/09 11:47:10;;;;;;;15.25;11.20;;;;;;;;;;5064822;28;20060;-77
2022/05/09 11:49:53;;;;;;;15.05;12.65;;;;;;;;;;5063059;28;20077;-76
2022/05/09 11:52:27;;;;;;;16.55;11.50;;;;;;;;;;5058705;28;20049;-76
2022/05/09 11:54:56;;;;;;;13.43;11.85;;;;;;;;;;5061609;28;20045;-76
2022/05/09 11:57:28;;;;;;;15.90;12.43;;;;;;;;;;5058228;28;20048;-76
2022/05/09 11:59:57;;;;;;;14.80;11.32;;;;;;;;;;5055782;28;20049;-76
2022/05/09 12:02:44;;;;;;;13.75;11.80;;;;;;;;;;5055215;28;20118;-77
2022/05/09 12:05:50;;;;;;;13.50;10.82;;;;;;;;;;5055651;28;20076;-77
2022/05/09 12:08:19;;;;;;;12.82;10.57;;;;;;;;;;5055898;28;20049;-77
2022/05/09 12:10:48;;;;;;;10.75;9.65;;;;;;;;;;5056152;28;20056;-77
2022/05/09 12:13:36;;;;;;;13.57;10.27;;;;;;;;;;5056224;28;20049;-77
2022/05/09 12:16:03;;;;;;;12.60;11.20;;;;;;;;;;5056941;28;20450;-76
2022/05/09 12:18:32;;;;;;;12.68;10.05;;;;;;;;;;5059033;28;20136;-77
2022/05/09 12:21:21;;;;;;;11.48;10.02;;;;;;;;;;5057506;28;20052;-77
2022/05/09 12:24:32;;;;;;;12.88;10.52;;;;;;;;;;5057284;28;20381;-77
2022/05/09 12:27:01;;;;;;;11.70;9.77;;;;;;;;;;5055614;28;20055;-77
2022/05/09 12:29:50;;;;;;;11.15;9.82;;;;;;;;;;5053572;28;20063;-77
2022/05/09 12:32:18;;;;;;;11.77;9.95;;;;;;;;;;5054683;28;20122;-77
2022/05/09 12:34:47;;;;;;;13.02;9.73;;;;;;;;;;5054643;28;20053;-77
2022/05/09 12:37:22;;;;;;;11.45;10.07;;;;;;;;;;5054471;28;20083;-78
2022/05/09 12:39:52;;;;;;;13.55;11.10;;;;;;;;;;5055306;28;20123;-77
2022/05/09 12:42:28;;;;;;;12.50;10.15;;;;;;;;;;5056739;28;20041;-77
2022/05/09 12:44:57;;;;;;;11.55;10.10;;;;;;;;;;5055880;28;20045;-77
2022/05/09 12:47:28;;;;;;;10.50;9.30;;;;;;;;;;5071174;28;20497;-77
2022/05/09 12:49:59;;;;;;;12.80;9.48;;;;;;;;;;5074454;28;20106;-77
2022/05/09 12:52:36;;;;;;;11.70;9.73;;;;;;;;;;5073481;28;20049;-76
2022/05/09 12:57:49;;;;;;;10.13;9.00;;;;;;;;;;5073774;28;20418;-77
2022/05/09 13:00:18;;;;;;;9.40;8.40;;;;;;;;;;5073988;28;20048;-76
2022/05/09 13:02:46;;;;;;;10.30;9.20;;;;;;;;;;5073470;28;20052;-77
2022/05/09 13:05:14;;;;;;;9.73;8.32;;;;;;;;;;5073398;28;20044;-77
2022/05/09 13:07:59;;;;;;;9.73;8.73;;;;;;;;;;5074472;28;20116;-77
2022/05/09 13:10:27;;;;;;;10.80;8.85;;;;;;;;;;5075299;28;20051;-77
2022/05/09 13:12:58;;;;;;;11.35;9.43;;;;;;;;;;5075258;28;20106;-77
2022/05/09 13:15:25;;;;;;;10.85;9.20;;;;;;;;;;5075147;28;20391;-77
2022/05/09 13:17:58;;;;;;;10.18;9.18;;;;;;;;;;5075313;28;20114;-77
2022/05/09 13:20:29;;;;;;;11.07;8.57;;;;;;;;;;5075552;28;20087;-77
2022/05/09 13:23:00;;;;;;;11.45;8.88;;;;;;;;;;5074254;28;20098;-76
2022/05/09 13:25:32;;;;;;;9.15;8.05;;;;;;;;;;5072963;28;20102;-76
2022/05/09 13:28:02;;;;;;;10.82;8.70;;;;;;;;;;5073268;28;20578;-77
2022/05/09 13:30:34;;;;;;;9.90;8.88;;;;;;;;;;5073331;28;20506;-76
2022/05/09 13:33:01;;;;;;;8.75;7.85;;;;;;;;;;5073290;28;20060;-77
2022/05/09 13:35:34;;;;;;;9.75;8.75;;;;;;;;;;5073150;28;20123;-76
2022/05/09 13:41:01;;;;;;;11.00;9.25;;;;;;;;;;5090286;27;20375;-61
2022/05/09 13:43:31;;;;;;;9.38;8.48;;;;;;;;;;5089717;28;20057;-62
2022/05/09 13:46:03;;;;;;;9.65;7.82;;;;;;;;;;5090048;28;20045;-61
2022/05/09 13:48:32;;;;;;;9.95;8.73;;;;;;;;;;5089713;28;20489;-62
2022/05/09 13:51:00;;;;;;;8.80;7.63;;;;;;;;;;5089542;28;20468;-62
2022/05/09 13:53:28;;;;;;;10.75;8.30;;;;;;;;;;5089761;28;20127;-61
2022/05/09 13:56:00;;;;;;;9.52;7.95;;;;;;;;;;5090979;28;20631;-62
2022/05/09 13:58:31;;;;;;;9.18;7.55;;;;;;;;;;5090029;28;20474;-62
2022/05/09 14:00:59;;;;;;;9.23;7.88;;;;;;;;;;5090127;28;20501;-61
2022/05/09 14:03:29;;;;;;;8.63;7.72;;;;;;;;;;5090252;28;20528;-61
2022/05/09 14:05:59;;;;;;;10.23;8.38;;;;;;;;;;5090815;28;20059;-61
2022/05/09 14:08:28;;;;;;;10.45;8.45;;;;;;;;;;5090771;28;20052;-61
2022/05/09 14:11:04;;;;;;;9.00;8.05;;;;;;;;;;5091246;28;20059;-61
2022/05/09 14:13:44;;;;;;;9.68;8.63;;;;;;;;;;5090546;28;20481;-61
2022/05/09 14:16:19;;;;;;;10.02;8.20;;;;;;;;;;5090479;28;20143;-61
2022/05/09 14:18:49;;;;;;;10.18;8.70;;;;;;;;;;5090500;28;20521;-61
2022/05/09 14:21:19;;;;;;;8.52;7.63;;;;;;;;;;5089704;28;20062;-61
2022/05/09 14:23:48;;;;;;;8.02;7.22;;;;;;;;;;5089711;28;20576;-62
2022/05/09 14:31:56;;;;;;;8.05;7.10;;;;;;;;;;5089689;28;20055;-61
2022/05/09 14:34:36;;;;;;;8.40;6.68;;;;;;;;;;5089705;28;20124;-61
2022/05/09 14:37:33;;;;;;;8.35;7.38;;;;;;;;;;5089610;28;20048;-60
2022/05/09 14:40:16;;;;;;;10.48;7.97;;;;;;;;;;5089758;28;20101;-61
2022/05/09 14:43:00;;;;;;;9.55;7.70;;;;;;;;;;5091361;28;20106;-60
2022/05/09 14:45:30;;;;;;;9.43;7.30;;;;;;;;;;5091216;28;20405;-61
2022/05/09 14:48:02;;;;;;;9.45;8.20;;;;;;;;;;5070299;28;20044;-61
2022/05/09 14:50:31;;;;;;;10.23;8.90;;;;;;;;;;5067779;28;20080;-61
2022/05/09 14:53:02;;;;;;;11.27;8.48;;;;;;;;;;5057596;28;20056;-61
2022/05/09 14:58:37;;;;;;;9.80;8.55;;;;;;;;;;5057761;28;20052;-61
2022/05/09 15:01:07;;;;;;;9.10;8.18;;;;;;;;;;5056824;28;20049;-61
2022/05/09 15:03:36;;;;;;;10.02;7.88;;;;;;;;;;5056044;28;20048;-61
2022/05/09 15:06:06;;;;;;;11.02;8.00;;;;;;;;;;5056024;28;20056;-62